Time;durP1;ratioP1;P1;durP2;ratioP2;P2;SDS_P1;SDS_P2;PMS_P1;PMS_P2;Temp;Humidity;BMP_temperature;BMP_pressure;BME280_temperature;BME280_humidity;BME280_pressure;Samples;Min_cycle;Max_cycle;Signal;HPM_P1;HPM_P2
2021/01/17 00:02:16;;;;;;;25.13;12.95;;;-0.80;99.90;;;;;;5012185;28;20509;-53
2021/01/17 00:04:41;;;;;;;23.02;12.02;;;1.60;99.90;;;;;;5010810;28;20492;-53
2021/01/17 00:07:07;;;;;;;27.23;13.10;;;-0.30;99.90;;;;;;5010939;28;20483;-52
2021/01/17 00:09:32;;;;;;;25.45;12.57;;;-0.70;99.90;;;;;;5012621;28;20941;-55
2021/01/17 00:11:58;;;;;;;31.10;14.47;;;-0.60;99.90;;;;;;5007708;28;20397;-55
2021/01/17 00:14:24;;;;;;;26.88;13.90;;;-0.50;99.90;;;;;;5006798;28;20432;-54
2021/01/17 00:16:50;;;;;;;26.02;14.10;;;-0.50;99.90;;;;;;5006270;28;20403;-55
2021/01/17 00:19:15;;;;;;;28.10;13.25;;;-0.50;99.90;;;;;;5005356;28;20766;-54
2021/01/17 00:21:45;;;;;;;28.45;13.30;;;-0.40;99.90;;;;;;5010839;28;20437;-55
2021/01/17 00:24:11;;;;;;;27.07;13.70;;;-0.30;99.90;;;;;;5009089;28;20447;-55
2021/01/17 00:26:37;;;;;;;20.93;10.90;;;-0.30;99.90;;;;;;5008607;28;20807;-55
2021/01/17 00:29:03;;;;;;;22.50;11.45;;;-0.30;99.90;;;;;;5005467;28;20385;-55
2021/01/17 00:31:38;;;;;;;23.02;12.32;;;-0.30;99.90;;;;;;5007940;28;20423;-55
2021/01/17 00:34:04;;;;;;;23.35;11.95;;;-0.30;99.90;;;;;;5004552;28;20381;-54
2021/01/17 00:36:37;;;;;;;24.37;12.57;;;-0.20;99.90;;;;;;5009872;28;20936;-55
2021/01/17 00:39:04;;;;;;;26.38;12.25;;;-0.20;99.90;;;;;;5010464;28;20389;-54
2021/01/17 00:41:31;;;;;;;26.52;12.55;;;-0.20;99.90;;;;;;5009826;28;20417;-55
2021/01/17 00:43:56;;;;;;;24.88;12.05;;;-0.20;99.90;;;;;;4998579;28;20927;-55
2021/01/17 00:46:22;;;;;;;27.20;13.13;;;-0.10;99.90;;;;;;5000115;28;20417;-54
2021/01/17 00:48:48;;;;;;;24.70;12.00;;;0.00;99.90;;;;;;5011609;28;20384;-55
2021/01/17 00:51:13;;;;;;;24.27;12.02;;;0.00;99.90;;;;;;5011371;28;20389;-54
2021/01/17 00:53:39;;;;;;;23.05;12.38;;;0.00;99.90;;;;;;5010202;28;20487;-55
2021/01/17 00:56:05;;;;;;;23.77;12.70;;;0.00;99.90;;;;;;5006844;28;20377;-54
2021/01/17 00:58:30;;;;;;;25.40;11.97;;;-0.10;99.90;;;;;;5005540;28;20396;-54
2021/01/17 01:00:56;;;;;;;23.30;11.45;;;-0.10;99.90;;;;;;5003965;28;20764;-55
2021/01/17 01:03:22;;;;;;;24.70;12.60;;;-0.10;99.90;;;;;;5009203;28;21109;-55
2021/01/17 01:05:48;;;;;;;25.35;12.45;;;-0.20;99.90;;;;;;5007883;28;20397;-55
2021/01/17 01:08:14;;;;;;;26.08;13.30;;;-0.10;99.90;;;;;;5008194;28;20718;-55
2021/01/17 01:10:40;;;;;;;25.73;12.85;;;-0.10;99.90;;;;;;5004407;28;20393;-55
2021/01/17 01:13:05;;;;;;;23.33;12.10;;;1.70;99.90;;;;;;5006997;28;20416;-54
2021/01/17 01:15:31;;;;;;;23.47;12.27;;;-0.30;99.90;;;;;;5005748;28;20402;-55
2021/01/17 01:17:58;;;;;;;25.50;12.40;;;-0.40;99.90;;;;;;5010017;28;20878;-55
2021/01/17 01:20:24;;;;;;;25.77;12.50;;;-0.50;99.90;;;;;;5005606;28;20986;-53
2021/01/17 01:22:50;;;;;;;27.37;13.30;;;-0.50;99.90;;;;;;5008439;28;20416;-55
2021/01/17 01:25:15;;;;;;;28.37;12.80;;;-0.50;99.90;;;;;;5010447;28;20499;-55
2021/01/17 01:27:47;;;;;;;26.40;13.05;;;-0.60;99.90;;;;;;5007358;28;20404;-55
2021/01/17 01:30:13;;;;;;;29.25;13.60;;;-0.60;99.90;;;;;;5007102;28;20855;-54
2021/01/17 01:32:39;;;;;;;26.95;13.23;;;-0.60;99.90;;;;;;5011732;28;20404;-55
2021/01/17 01:35:05;;;;;;;26.70;13.60;;;-0.60;99.90;;;;;;5007916;28;20408;-53
2021/01/17 01:37:35;;;;;;;26.75;14.30;;;-0.50;99.90;;;;;;5011176;28;20923;-55
2021/01/17 01:40:01;;;;;;;29.67;14.57;;;-0.60;99.90;;;;;;5009628;28;20389;-54
2021/01/17 01:42:27;;;;;;;26.42;13.80;;;-0.60;99.90;;;;;;5009137;28;20428;-54
2021/01/17 01:44:52;;;;;;;31.50;15.20;;;-0.50;99.90;;;;;;5010541;28;20388;-55
2021/01/17 01:47:25;;;;;;;32.88;16.40;;;-0.50;99.90;;;;;;5010458;28;20428;-55
2021/01/17 01:49:52;;;;;;;30.63;15.48;;;-0.60;99.90;;;;;;5009889;28;20408;-55
2021/01/17 01:52:18;;;;;;;29.20;14.93;;;-0.60;99.90;;;;;;5009531;28;20421;-55
2021/01/17 01:54:44;;;;;;;34.03;16.73;;;-0.60;99.90;;;;;;5009507;28;20408;-55
2021/01/17 01:57:09;;;;;;;33.33;16.33;;;1.50;99.90;;;;;;5010141;28;20787;-54
2021/01/17 01:59:35;;;;;;;36.95;18.08;;;-0.60;99.90;;;;;;5009247;28;20404;-55
2021/01/17 02:02:06;;;;;;;36.53;16.83;;;-0.70;99.90;;;;;;5010731;28;20510;-55
2021/01/17 02:04:31;;;;;;;33.72;15.55;;;-0.70;99.90;;;;;;5011164;28;20389;-55
2021/01/17 02:07:41;;;;;;;33.17;16.27;;;-0.70;99.90;;;;;;5009108;28;20801;-55
2021/01/17 02:10:07;;;;;;;29.17;15.38;;;-0.60;99.90;;;;;;5008752;28;20415;-54
2021/01/17 02:12:54;;;;;;;30.52;16.67;;;-0.60;99.90;;;;;;5008971;28;20786;-54
2021/01/17 02:15:40;;;;;;;33.47;17.70;;;-0.50;99.90;;;;;;5009258;28;20443;-54
2021/01/17 02:18:08;;;;;;;36.97;17.60;;;-0.40;99.90;;;;;;5007477;28;20405;-54
2021/01/17 02:20:36;;;;;;;36.10;17.88;;;-0.50;99.90;;;;;;5010161;28;20385;-55
2021/01/17 02:23:02;;;;;;;32.80;16.40;;;-0.50;99.90;;;;;;5009113;28;20417;-55
2021/01/17 02:25:38;;;;;;;31.70;16.00;;;-0.60;99.90;;;;;;5009577;28;20404;-55
2021/01/17 02:28:10;;;;;;;34.35;17.63;;;-0.60;99.90;;;;;;5008418;28;20484;-54
2021/01/17 02:30:39;;;;;;;29.83;16.10;;;-0.70;99.90;;;;;;5010170;28;20389;-55
2021/01/17 02:33:21;;;;;;;30.63;15.52;;;-0.70;99.90;;;;;;5008837;28;20478;-54
2021/01/17 02:35:49;;;;;;;27.67;15.25;;;-0.70;99.90;;;;;;4991439;28;20416;-55
2021/01/17 02:38:46;;;;;;;29.50;16.52;;;-0.80;99.90;;;;;;5008928;28;20734;-52
2021/01/17 02:41:25;;;;;;;27.60;15.63;;;-0.90;99.90;;;;;;5008176;28;20416;-52
2021/01/17 02:43:51;;;;;;;31.67;15.82;;;-0.90;99.90;;;;;;5009488;28;20427;-53
2021/01/17 02:46:17;;;;;;;27.33;15.53;;;-0.90;99.90;;;;;;5008261;28;20408;-53
2021/01/17 02:48:42;;;;;;;30.03;15.50;;;-0.90;99.90;;;;;;5010192;28;20396;-53
2021/01/17 02:51:08;;;;;;;27.30;15.93;;;-0.90;99.90;;;;;;5007836;28;20393;-53
2021/01/17 02:54:00;;;;;;;27.60;14.55;;;-1.00;99.90;;;;;;5010078;28;20381;-53
2021/01/17 02:56:30;;;;;;;35.85;16.05;;;-1.00;99.90;;;;;;5007838;28;20389;-53
2021/01/17 02:58:58;;;;;;;29.00;15.55;;;-0.90;99.90;;;;;;5010111;28;20411;-52
2021/01/17 03:01:28;;;;;;;26.77;16.20;;;-0.90;99.90;;;;;;5007588;28;20942;-53
2021/01/17 03:04:00;;;;;;;31.98;16.42;;;-0.90;99.90;;;;;;5009877;28;20401;-52
2021/01/17 03:06:27;;;;;;;31.52;16.52;;;-0.90;99.90;;;;;;5007635;28;20393;-53
2021/01/17 03:08:53;;;;;;;32.95;17.52;;;-0.80;99.90;;;;;;5010012;28;20388;-54
2021/01/17 03:11:20;;;;;;;30.08;16.58;;;-0.80;99.90;;;;;;5009527;28;20385;-54
2021/01/17 03:13:47;;;;;;;33.83;16.83;;;-0.80;99.90;;;;;;5008292;28;20421;-52
2021/01/17 03:16:13;;;;;;;34.42;17.42;;;-0.80;99.90;;;;;;5008995;28;20423;-52
2021/01/17 03:18:39;;;;;;;34.25;17.33;;;0.80;99.90;;;;;;5008962;28;21090;-54
2021/01/17 03:21:05;;;;;;;32.17;17.30;;;-0.70;99.90;;;;;;5008762;28;20747;-54
2021/01/17 03:23:31;;;;;;;33.58;17.88;;;-0.60;99.90;;;;;;5009096;28;20858;-55
2021/01/17 03:25:56;;;;;;;36.70;17.95;;;-0.60;99.90;;;;;;5008622;28;20397;-55
2021/01/17 03:28:23;;;;;;;29.60;15.75;;;-0.60;99.90;;;;;;5007937;28;20479;-55
2021/01/17 03:30:49;;;;;;;31.88;17.15;;;-0.70;99.90;;;;;;5011952;28;20412;-55
2021/01/17 03:33:14;;;;;;;34.75;17.00;;;-0.60;99.90;;;;;;5012596;28;20384;-55
2021/01/17 03:35:40;;;;;;;32.85;17.15;;;-0.50;99.90;;;;;;5011736;28;20403;-55
2021/01/17 03:38:06;;;;;;;34.13;17.83;;;-0.40;99.90;;;;;;5011930;28;20496;-54
2021/01/17 03:40:32;;;;;;;36.03;16.95;;;-0.40;99.90;;;;;;5011972;28;20424;-55
2021/01/17 03:42:57;;;;;;;33.85;17.77;;;-0.40;99.90;;;;;;5011546;28;20420;-54
2021/01/17 03:45:23;;;;;;;35.83;17.73;;;-0.40;99.90;;;;;;5012444;28;20981;-54
2021/01/17 03:47:49;;;;;;;30.97;17.20;;;-0.50;99.90;;;;;;5011965;28;20392;-54
2021/01/17 03:50:14;;;;;;;32.30;16.92;;;-0.50;99.90;;;;;;5012728;28;20781;-54
2021/01/17 03:52:40;;;;;;;37.00;18.80;;;2.10;99.90;;;;;;5013242;28;20708;-54
2021/01/17 03:55:06;;;;;;;35.07;18.60;;;-0.40;99.90;;;;;;5011022;28;20400;-54
2021/01/17 03:57:32;;;;;;;31.93;16.80;;;-0.40;99.90;;;;;;5011788;28;20407;-54
2021/01/17 03:59:58;;;;;;;34.58;18.73;;;-0.40;99.90;;;;;;5011623;28;20369;-55
2021/01/17 04:02:23;;;;;;;35.77;18.33;;;-0.30;99.90;;;;;;5010452;28;20436;-54
2021/01/17 04:04:49;;;;;;;33.47;17.52;;;-0.30;99.90;;;;;;5011448;28;20412;-55
2021/01/17 04:07:15;;;;;;;33.35;17.38;;;-0.30;99.90;;;;;;5011442;28;20393;-54
2021/01/17 04:09:40;;;;;;;35.00;18.77;;;-0.30;99.90;;;;;;5012010;28;20799;-55
2021/01/17 04:12:06;;;;;;;36.07;17.70;;;-0.30;99.90;;;;;;5011475;28;20731;-54
2021/01/17 04:14:32;;;;;;;32.10;16.63;;;-0.30;99.90;;;;;;5011863;28;20562;-55
2021/01/17 04:16:58;;;;;;;35.63;17.15;;;-0.30;99.90;;;;;;5010719;28;20490;-54
2021/01/17 04:19:23;;;;;;;34.53;17.50;;;-0.30;99.90;;;;;;5012001;28;20494;-55
2021/01/17 04:21:49;;;;;;;34.73;17.53;;;-0.50;99.90;;;;;;5012497;28;20444;-55
2021/01/17 04:24:15;;;;;;;36.90;18.53;;;-0.50;99.90;;;;;;5010308;28;20502;-54
2021/01/17 04:26:41;;;;;;;36.72;18.80;;;-0.50;99.90;;;;;;5011964;28;20950;-55
2021/01/17 04:29:07;;;;;;;36.45;18.95;;;-0.50;99.90;;;;;;5010052;28;20491;-54
2021/01/17 04:31:43;;;;;;;37.28;18.33;;;-0.40;99.90;;;;;;5012574;28;20399;-54
2021/01/17 04:34:09;;;;;;;39.53;20.25;;;-0.40;99.90;;;;;;5009962;28;20417;-54
2021/01/17 04:36:34;;;;;;;41.80;20.00;;;-0.40;99.90;;;;;;5012619;28;20396;-54
2021/01/17 04:39:00;;;;;;;37.63;18.88;;;-0.30;99.90;;;;;;5010456;28;20475;-55
2021/01/17 04:41:28;;;;;;;38.63;19.48;;;-0.40;99.90;;;;;;5010583;28;20683;-54
2021/01/17 04:43:58;;;;;;;38.00;20.23;;;-0.40;99.90;;;;;;5012626;28;20471;-54
2021/01/17 04:46:29;;;;;;;33.85;18.23;;;1.30;99.90;;;;;;5010023;28;20400;-54
2021/01/17 04:49:01;;;;;;;34.90;18.98;;;-0.60;99.90;;;;;;5011683;28;20757;-54
2021/01/17 04:51:28;;;;;;;36.25;19.08;;;-0.60;99.90;;;;;;5010700;28;20404;-54
2021/01/17 04:53:57;;;;;;;36.25;18.77;;;-0.50;99.90;;;;;;5010556;28;20393;-54
2021/01/17 04:56:31;;;;;;;35.10;18.65;;;-0.40;99.90;;;;;;5011328;28;20386;-55
2021/01/17 04:59:09;;;;;;;35.53;18.43;;;-0.40;99.90;;;;;;5012145;28;20435;-54
2021/01/17 05:01:47;;;;;;;35.88;19.35;;;-0.30;99.90;;;;;;5009263;28;20420;-55
2021/01/17 05:04:22;;;;;;;36.57;19.50;;;-0.30;99.90;;;;;;4991760;28;20493;-54
2021/01/17 05:06:58;;;;;;;37.70;18.92;;;-0.30;99.90;;;;;;4998611;28;20405;-54
2021/01/17 05:09:31;;;;;;;37.08;17.90;;;-0.20;99.90;;;;;;5010375;28;20512;-54
2021/01/17 05:12:10;;;;;;;35.60;18.83;;;-0.30;99.90;;;;;;5010347;28;20405;-55
2021/01/17 05:14:54;;;;;;;37.08;19.60;;;2.00;99.90;;;;;;5011345;28;20879;-55
2021/01/17 05:17:24;;;;;;;37.30;19.05;;;-0.30;99.90;;;;;;5010502;28;20404;-55
2021/01/17 05:19:50;;;;;;;34.28;18.48;;;-0.30;99.90;;;;;;5010144;28;20396;-54
2021/01/17 05:22:20;;;;;;;36.03;18.40;;;-0.30;99.90;;;;;;5010651;28;20456;-54
2021/01/17 05:24:51;;;;;;;32.65;18.60;;;-0.30;99.90;;;;;;5009729;28;20841;-55
2021/01/17 05:27:16;;;;;;;40.20;20.00;;;-0.30;99.90;;;;;;5009665;28;20408;-54
2021/01/17 05:29:42;;;;;;;36.57;18.77;;;-0.30;99.90;;;;;;5011263;28;20385;-55
2021/01/17 05:32:07;;;;;;;38.90;19.10;;;-0.30;99.90;;;;;;5010594;28;20459;-54
2021/01/17 05:34:34;;;;;;;38.92;19.08;;;-0.30;99.90;;;;;;5009439;28;20487;-54
2021/01/17 05:37:11;;;;;;;30.65;16.65;;;-0.40;99.90;;;;;;5011285;28;20873;-54
2021/01/17 05:39:59;;;;;;;39.43;18.50;;;-0.40;99.90;;;;;;5009837;28;20408;-54
2021/01/17 05:42:29;;;;;;;37.03;19.92;;;-0.40;99.90;;;;;;5010485;28;20412;-54
2021/01/17 05:45:17;;;;;;;34.38;18.48;;;-0.40;99.90;;;;;;5009981;28;20476;-55
2021/01/17 05:48:03;;;;;;;37.40;19.85;;;-0.30;99.90;;;;;;5009959;28;20396;-55
2021/01/17 05:50:31;;;;;;;37.55;19.00;;;-0.20;99.90;;;;;;5008736;28;20480;-54
2021/01/17 05:53:01;;;;;;;39.90;19.85;;;-0.30;99.90;;;;;;5010906;28;20377;-55
2021/01/17 05:55:40;;;;;;;40.67;20.27;;;-0.20;99.90;;;;;;5009846;28;20672;-54
2021/01/17 05:58:26;;;;;;;40.33;20.80;;;-0.10;99.90;;;;;;5009758;28;20483;-55
2021/01/17 06:00:55;;;;;;;36.83;19.98;;;-0.10;99.90;;;;;;5007912;28;20409;-55
2021/01/17 06:03:25;;;;;;;39.30;20.17;;;0.00;99.90;;;;;;5010097;28;20409;-55
2021/01/17 06:05:51;;;;;;;40.60;20.33;;;0.00;99.90;;;;;;5009298;28;20409;-55
2021/01/17 06:08:19;;;;;;;40.47;20.00;;;-0.20;99.90;;;;;;5010086;28;20806;-54
2021/01/17 06:10:47;;;;;;;42.08;20.63;;;-0.30;99.90;;;;;;5009332;28;20419;-55
2021/01/17 06:13:41;;;;;;;43.55;22.10;;;-0.30;99.90;;;;;;5007389;28;20412;-54
2021/01/17 06:16:33;;;;;;;38.55;20.75;;;-0.30;99.90;;;;;;5006428;28;20405;-55
2021/01/17 06:19:01;;;;;;;40.30;19.50;;;-0.40;99.90;;;;;;5002516;28;20445;-54
2021/01/17 06:21:31;;;;;;;40.80;20.53;;;1.70;99.90;;;;;;4997977;28;20819;-54
2021/01/17 06:23:58;;;;;;;42.25;21.08;;;-0.40;99.90;;;;;;5009427;28;20535;-55
2021/01/17 06:26:38;;;;;;;39.80;19.52;;;-0.50;99.90;;;;;;5008944;28;20855;-54
2021/01/17 06:29:06;;;;;;;49.25;22.67;;;-0.50;99.90;;;;;;5009601;28;20519;-54
2021/01/17 06:31:32;;;;;;;41.70;20.77;;;-0.50;99.90;;;;;;5007314;28;20751;-55
2021/01/17 06:34:08;;;;;;;44.45;21.73;;;-0.40;99.90;;;;;;5010364;28;20385;-55
2021/01/17 06:36:36;;;;;;;40.95;20.60;;;-0.40;99.90;;;;;;5008364;28;20472;-55
2021/01/17 06:39:03;;;;;;;45.92;20.17;;;-0.40;99.90;;;;;;5001407;28;20380;-55
2021/01/17 06:41:40;;;;;;;40.88;20.35;;;-0.30;99.90;;;;;;5007934;28;20508;-55
2021/01/17 06:44:13;;;;;;;43.35;20.15;;;-0.30;99.90;;;;;;4990770;28;20402;-55
2021/01/17 06:46:48;;;;;;;41.23;21.43;;;-0.20;99.90;;;;;;5005374;28;20400;-55
2021/01/17 06:49:14;;;;;;;41.30;21.15;;;0.00;99.90;;;;;;5009635;28;20463;-54
2021/01/17 06:51:41;;;;;;;42.15;21.00;;;2.60;99.90;;;;;;5008930;28;20883;-55
2021/01/17 06:54:07;;;;;;;40.42;20.88;;;-0.20;99.90;;;;;;5010068;28;20511;-54
2021/01/17 06:56:34;;;;;;;48.65;22.70;;;-0.30;99.90;;;;;;5000314;28;20405;-55
2021/01/17 06:59:00;;;;;;;49.15;21.67;;;-0.30;99.90;;;;;;5009624;28;20381;-54
2021/01/17 07:01:28;;;;;;;45.70;24.00;;;-0.30;99.90;;;;;;5006598;28;20420;-54
2021/01/17 07:03:56;;;;;;;42.08;22.10;;;-0.40;99.90;;;;;;5010574;28;20396;-55
2021/01/17 07:07:00;;;;;;;39.93;20.97;;;-0.40;99.90;;;;;;5011455;28;20401;-55
2021/01/17 07:09:45;;;;;;;44.30;21.83;;;-0.40;99.90;;;;;;5005388;28;20377;-54
2021/01/17 07:12:25;;;;;;;44.70;21.58;;;-0.40;99.90;;;;;;5008426;28;20427;-54
2021/01/17 07:15:05;;;;;;;48.35;21.83;;;-0.40;99.90;;;;;;5010046;28;20421;-54
2021/01/17 07:17:40;;;;;;;44.80;21.95;;;-0.40;99.90;;;;;;5004751;28;20527;-55
2021/01/17 07:20:08;;;;;;;46.75;22.63;;;-0.30;99.90;;;;;;5009693;28;20462;-55
2021/01/17 07:22:35;;;;;;;51.25;23.50;;;-0.30;99.90;;;;;;5012462;28;20440;-54
2021/01/17 07:25:06;;;;;;;42.90;22.30;;;1.50;99.90;;;;;;5009262;28;20405;-55
2021/01/17 07:28:07;;;;;;;44.15;22.48;;;-0.30;99.90;;;;;;5012291;28;20396;-55
2021/01/17 07:30:40;;;;;;;45.83;23.03;;;-2.10;99.90;;;;;;5010071;28;20408;-54
2021/01/17 07:33:07;;;;;;;46.63;23.15;;;-2.40;99.90;;;;;;5012587;28;20886;-55
2021/01/17 07:35:40;;;;;;;46.80;22.10;;;-0.20;99.90;;;;;;5010237;28;20463;-54
2021/01/17 07:38:20;;;;;;;47.35;23.55;;;-0.20;99.90;;;;;;5012895;28;20727;-55
2021/01/17 07:40:53;;;;;;;45.95;21.85;;;-0.10;99.90;;;;;;5008369;28;20392;-54
2021/01/17 07:43:23;;;;;;;48.85;22.85;;;-0.10;99.90;;;;;;5005846;28;20412;-55
2021/01/17 07:45:49;;;;;;;43.05;23.40;;;1.60;99.90;;;;;;5008873;28;20393;-55
2021/01/17 07:48:15;;;;;;;44.30;21.50;;;0.20;99.90;;;;;;5008377;28;20397;-55
2021/01/17 07:50:46;;;;;;;45.80;22.27;;;-0.10;99.90;;;;;;5011965;28;20381;-55
2021/01/17 07:53:37;;;;;;;41.60;21.67;;;-0.10;99.90;;;;;;5010819;28;20425;-54
2021/01/17 07:56:12;;;;;;;41.45;21.08;;;0.00;99.90;;;;;;5004919;28;20859;-55
2021/01/17 07:58:43;;;;;;;46.67;22.60;;;2.80;99.90;;;;;;5008664;28;20507;-55
2021/01/17 08:01:30;;;;;;;45.40;22.58;;;0.00;99.90;;;;;;5008461;28;20415;-55
2021/01/17 08:04:17;;;;;;;46.30;21.90;;;0.10;99.90;;;;;;5009592;28;20501;-55
2021/01/17 08:06:45;;;;;;;45.28;22.00;;;0.20;99.90;;;;;;5003886;28;20479;-55
2021/01/17 08:09:18;;;;;;;44.00;22.25;;;0.30;99.90;;;;;;5009900;28;20440;-54
2021/01/17 08:11:57;;;;;;;45.03;21.63;;;0.30;99.90;;;;;;5010721;28;20407;-55
2021/01/17 08:14:32;;;;;;;44.60;22.30;;;1.50;99.90;;;;;;5007881;28;20420;-55
2021/01/17 08:17:14;;;;;;;47.83;22.10;;;0.40;99.90;;;;;;5010544;28;20381;-55
2021/01/17 08:19:41;;;;;;;42.28;22.73;;;0.40;99.90;;;;;;5010366;28;20420;-55
2021/01/17 08:22:21;;;;;;;47.05;22.63;;;0.50;99.90;;;;;;5011859;28;20978;-55
2021/01/17 08:24:56;;;;;;;46.80;24.15;;;0.40;99.90;;;;;;5011772;28;20389;-55
2021/01/17 08:27:30;;;;;;;44.13;21.20;;;0.50;99.90;;;;;;5009254;28;20427;-55
2021/01/17 08:30:08;;;;;;;51.63;24.10;;;0.60;99.90;;;;;;5011879;28;20400;-55
2021/01/17 08:32:40;;;;;;;46.45;21.60;;;0.60;99.90;;;;;;5001901;28;20404;-55
2021/01/17 08:35:17;;;;;;;45.42;21.77;;;0.50;99.90;;;;;;5007526;28;20488;-54
2021/01/17 08:37:43;;;;;;;43.00;21.75;;;2.10;99.90;;;;;;5011717;28;20389;-55
2021/01/17 08:40:10;;;;;;;41.65;21.70;;;3.30;99.90;;;;;;5009668;28;20404;-54
2021/01/17 08:42:38;;;;;;;41.63;20.98;;;0.70;99.90;;;;;;5004275;28;20421;-55
2021/01/17 08:45:27;;;;;;;43.00;21.73;;;0.80;99.90;;;;;;5009724;28;20484;-55
2021/01/17 08:47:56;;;;;;;39.33;21.48;;;0.90;99.90;;;;;;5010078;28;20467;-55
2021/01/17 08:50:38;;;;;;;45.87;22.17;;;2.50;99.90;;;;;;5008433;28;20409;-55
2021/01/17 08:53:14;;;;;;;41.00;21.20;;;1.00;99.90;;;;;;5005698;28;20827;-55
2021/01/17 08:55:40;;;;;;;42.22;21.23;;;1.00;99.90;;;;;;5010687;28;20396;-55
2021/01/17 08:58:07;;;;;;;43.58;22.25;;;1.20;99.90;;;;;;5006503;28;20396;-55
2021/01/17 09:00:51;;;;;;;42.60;20.90;;;3.30;99.90;;;;;;5008142;28;20468;-55
2021/01/17 09:03:27;;;;;;;41.73;21.47;;;2.90;99.90;;;;;;5003189;28;20529;-55
2021/01/17 09:05:54;;;;;;;44.05;21.13;;;1.60;99.90;;;;;;5010110;28;20401;-55
2021/01/17 09:08:20;;;;;;;44.00;21.67;;;1.60;99.90;;;;;;5004601;28;20502;-55
2021/01/17 09:10:46;;;;;;;42.27;21.70;;;3.20;99.90;;;;;;5009064;28;20887;-55
2021/01/17 09:13:29;;;;;;;43.47;21.80;;;1.40;99.90;;;;;;5007095;28;20428;-55
2021/01/17 09:15:59;;;;;;;41.10;21.33;;;1.50;99.90;;;;;;5006587;28;20408;-55
2021/01/17 09:18:26;;;;;;;47.00;21.65;;;1.70;99.90;;;;;;5005512;28;20967;-52
2021/01/17 09:20:53;;;;;;;43.42;21.80;;;3.00;99.90;;;;;;5010446;28;20472;-53
2021/01/17 09:23:21;;;;;;;44.17;22.23;;;3.50;99.90;;;;;;5009511;28;20417;-53
2021/01/17 09:25:47;;;;;;;42.72;21.35;;;2.00;99.90;;;;;;5010150;28;20419;-53
2021/01/17 09:28:18;;;;;;;40.33;20.55;;;1.90;99.90;;;;;;5008837;28;20407;-52
2021/01/17 09:30:50;;;;;;;43.08;19.45;;;1.90;99.90;;;;;;5009530;28;20393;-53
2021/01/17 09:33:17;;;;;;;38.63;18.92;;;2.70;99.90;;;;;;5009796;28;20385;-52
2021/01/17 09:35:44;;;;;;;37.73;18.70;;;1.90;99.90;;;;;;5009423;28;20401;-53
2021/01/17 09:38:18;;;;;;;34.97;18.70;;;3.70;99.90;;;;;;5009475;28;20887;-52
2021/01/17 09:40:46;;;;;;;35.47;18.88;;;2.70;99.90;;;;;;4994630;28;20404;-52
2021/01/17 09:43:12;;;;;;;34.65;18.33;;;2.10;99.90;;;;;;5009217;28;20767;-53
2021/01/17 09:45:38;;;;;;;38.55;18.48;;;1.90;99.90;;;;;;5009416;28;20405;-54
2021/01/17 09:48:04;;;;;;;39.38;21.88;;;4.00;99.90;;;;;;5009652;28;20400;-54
2021/01/17 09:50:35;;;;;;;35.13;18.77;;;2.40;99.90;;;;;;5008763;28;20388;-54
2021/01/17 09:53:08;;;;;;;37.57;21.83;;;2.40;99.90;;;;;;5009491;28;20397;-54
2021/01/17 09:55:38;;;;;;;49.03;26.90;;;2.60;99.90;;;;;;5009869;28;20385;-54
2021/01/17 09:58:10;;;;;;;51.20;29.52;;;3.80;99.90;;;;;;5008825;28;20400;-54
2021/01/17 10:00:37;;;;;;;37.00;20.05;;;2.50;99.90;;;;;;5008656;28;20433;-54
2021/01/17 10:03:11;;;;;;;43.65;25.90;;;2.50;99.90;;;;;;5009881;28;20420;-54
2021/01/17 10:05:38;;;;;;;42.00;22.00;;;2.70;99.90;;;;;;5008740;28;20416;-54
2021/01/17 10:08:08;;;;;;;36.00;20.73;;;2.50;99.90;;;;;;5009885;28;20855;-54
2021/01/17 10:10:36;;;;;;;36.42;18.25;;;3.10;99.90;;;;;;5008875;28;20484;-53
2021/01/17 10:13:02;;;;;;;31.20;16.33;;;2.60;99.90;;;;;;5010355;28;20515;-54
2021/01/17 10:15:27;;;;;;;34.40;17.23;;;2.50;99.90;;;;;;5007928;28;20437;-54
2021/01/17 10:17:55;;;;;;;31.55;16.58;;;2.60;99.90;;;;;;5009000;28;21242;-54
2021/01/17 10:20:33;;;;;;;29.92;15.48;;;3.40;99.90;;;;;;5009478;28;20385;-54
2021/01/17 10:23:16;;;;;;;30.73;17.05;;;2.80;99.90;;;;;;5008712;28;20428;-54
2021/01/17 10:25:45;;;;;;;36.30;17.73;;;2.90;99.90;;;;;;5008751;28;20819;-54
2021/01/17 10:28:11;;;;;;;33.83;17.58;;;3.90;99.90;;;;;;5008847;28;20528;-53
2021/01/17 10:30:41;;;;;;;34.38;18.80;;;3.80;99.90;;;;;;5008688;28;20496;-53
2021/01/17 10:33:09;;;;;;;33.17;17.42;;;2.80;99.90;;;;;;5009768;28;20934;-54
2021/01/17 10:35:43;;;;;;;33.50;17.35;;;2.80;99.90;;;;;;5008163;28;20393;-53
2021/01/17 10:38:10;;;;;;;35.35;18.65;;;2.60;99.90;;;;;;5007466;28;20388;-54
2021/01/17 10:40:36;;;;;;;44.22;27.52;;;2.50;99.90;;;;;;5007393;28;20479;-54
2021/01/17 10:43:08;;;;;;;38.65;21.75;;;5.30;99.90;;;;;;5009583;28;20495;-54
2021/01/17 10:45:35;;;;;;;41.65;22.95;;;2.80;99.90;;;;;;5007143;28;20809;-53
2021/01/17 10:48:13;;;;;;;36.67;21.38;;;4.90;99.90;;;;;;5008155;28;20392;-53
2021/01/17 10:50:48;;;;;;;40.78;23.13;;;3.00;99.90;;;;;;5006173;28;20384;-54
2021/01/17 10:53:23;;;;;;;34.88;19.80;;;3.10;99.90;;;;;;5007287;28;20556;-53
2021/01/17 10:55:52;;;;;;;32.13;17.33;;;3.20;99.90;;;;;;5009023;28;20399;-53
2021/01/17 10:58:23;;;;;;;32.60;18.10;;;3.10;99.90;;;;;;5007955;28;20405;-53
2021/01/17 11:00:59;;;;;;;37.10;17.90;;;2.90;99.90;;;;;;5009886;28;20427;-53
2021/01/17 11:03:35;;;;;;;34.75;18.33;;;2.70;99.90;;;;;;5006956;28;20898;-53
2021/01/17 11:06:18;;;;;;;35.88;19.42;;;2.60;99.90;;;;;;5007523;28;20382;-53
2021/01/17 11:08:53;;;;;;;34.58;18.02;;;0.60;99.90;;;;;;5008883;28;20405;-54
2021/01/17 11:11:20;;;;;;;31.63;17.25;;;2.70;99.90;;;;;;5007474;28;20401;-53
2021/01/17 11:14:05;;;;;;;31.92;16.98;;;3.60;99.90;;;;;;5009133;28;20401;-53
2021/01/17 11:16:43;;;;;;;29.20;15.57;;;2.80;99.90;;;;;;5008572;28;20405;-53
2021/01/17 11:19:13;;;;;;;32.63;17.38;;;2.60;99.90;;;;;;5008496;28;20439;-53
2021/01/17 11:21:41;;;;;;;34.42;18.20;;;2.60;99.90;;;;;;5008838;28;20775;-53
2021/01/17 11:24:08;;;;;;;38.90;22.83;;;3.20;99.90;;;;;;5007645;28;20500;-53
2021/01/17 11:26:34;;;;;;;34.27;19.87;;;2.30;99.90;;;;;;5005395;28;20515;-53
2021/01/17 11:29:03;;;;;;;28.20;16.60;;;2.40;99.90;;;;;;4999028;28;20451;-53
2021/01/17 11:31:29;;;;;;;29.58;16.27;;;2.40;99.90;;;;;;5001029;28;20486;-53
2021/01/17 11:33:55;;;;;;;30.60;16.60;;;2.40;99.90;;;;;;5007801;28;20474;-57
2021/01/17 11:36:24;;;;;;;30.45;15.43;;;2.90;99.90;;;;;;5007096;28;20389;-52
2021/01/17 11:38:54;;;;;;;29.77;15.52;;;4.90;99.90;;;;;;5007719;28;20405;-53
2021/01/17 11:41:23;;;;;;;28.92;15.57;;;2.20;99.90;;;;;;5005302;28;20393;-52
2021/01/17 11:43:49;;;;;;;30.25;16.20;;;2.20;99.90;;;;;;5006824;28;20836;-53
2021/01/17 11:46:15;;;;;;;28.08;16.25;;;2.20;99.90;;;;;;5008048;28;20922;-53
2021/01/17 11:48:42;;;;;;;32.20;16.27;;;2.20;99.90;;;;;;5006636;28;20409;-53
2021/01/17 11:51:09;;;;;;;29.02;15.70;;;2.50;99.90;;;;;;5009172;28;20392;-54
2021/01/17 11:53:35;;;;;;;29.58;15.98;;;3.80;99.90;;;;;;5012062;28;20468;-54
2021/01/17 11:56:02;;;;;;;28.00;15.30;;;2.50;99.90;;;;;;5009226;28;20415;-54
2021/01/17 11:58:37;;;;;;;30.05;16.23;;;2.50;99.90;;;;;;5011280;28;20794;-54
2021/01/17 12:01:03;;;;;;;31.42;16.60;;;2.50;99.90;;;;;;5010408;28;20384;-53
2021/01/17 12:03:31;;;;;;;31.05;16.85;;;3.80;99.90;;;;;;5004409;28;20477;-53
2021/01/17 12:06:00;;;;;;;31.52;16.33;;;3.40;99.90;;;;;;5009264;28;20427;-53
2021/01/17 12:08:26;;;;;;;29.70;16.10;;;2.40;99.90;;;;;;5010389;28;20402;-53
2021/01/17 12:10:55;;;;;;;29.58;15.90;;;2.60;99.90;;;;;;5011908;28;20385;-53
2021/01/17 12:13:21;;;;;;;29.67;15.80;;;4.50;99.90;;;;;;5010750;28;20439;-53
2021/01/17 12:15:47;;;;;;;29.33;15.40;;;2.40;99.90;;;;;;5011372;28;20393;-53
2021/01/17 12:18:13;;;;;;;30.53;16.00;;;2.40;99.90;;;;;;5010675;28;20832;-53
2021/01/17 12:20:39;;;;;;;31.70;16.60;;;2.40;99.90;;;;;;5010134;28;20850;-53
2021/01/17 12:23:05;;;;;;;33.25;17.23;;;4.30;99.90;;;;;;5012253;28;20439;-53
2021/01/17 12:25:30;;;;;;;28.10;16.07;;;2.40;99.90;;;;;;5010126;28;21075;-53
2021/01/17 12:27:56;;;;;;;27.92;15.80;;;5.00;99.90;;;;;;5011972;28;20550;-53
2021/01/17 12:30:22;;;;;;;26.45;14.93;;;2.50;99.90;;;;;;5010052;28;20401;-53
2021/01/17 12:32:47;;;;;;;30.50;16.00;;;2.60;99.90;;;;;;5010082;28;20403;-54
2021/01/17 12:35:13;;;;;;;31.90;16.23;;;3.20;99.90;;;;;;4991925;28;20398;-53
2021/01/17 12:37:38;;;;;;;33.25;17.20;;;2.50;99.90;;;;;;5007763;28;20895;-54
2021/01/17 12:40:05;;;;;;;31.10;17.00;;;2.40;99.90;;;;;;5011897;28;20424;-54
2021/01/17 12:42:30;;;;;;;33.40;17.77;;;2.40;99.90;;;;;;5002723;28;20417;-55
2021/01/17 12:44:56;;;;;;;32.97;17.50;;;3.10;99.90;;;;;;5010595;28;20420;-54
2021/01/17 12:47:21;;;;;;;33.88;18.70;;;2.50;99.90;;;;;;5006956;28;20420;-54